createdAt,value
2019-03-31T00:01:24.698Z,102.33
2019-03-31T00:03:53.126Z,107.23
2019-03-31T00:06:21.578Z,104.73
2019-03-31T00:08:49.996Z,106.17
2019-03-31T00:11:18.441Z,107.17
2019-03-31T00:13:46.859Z,109.67
2019-03-31T00:16:15.381Z,106.43
2019-03-31T00:18:43.799Z,110.77
2019-03-31T00:21:12.264Z,113.27
2019-03-31T00:23:40.681Z,115.30
2019-03-31T00:26:09.134Z,113.23
2019-03-31T00:28:37.564Z,114.83
2019-03-31T00:31:06.552Z,109.30
2019-03-31T00:33:34.984Z,108.27
2019-03-31T00:36:03.430Z,129.90
2019-03-31T00:38:31.854Z,117.10
2019-03-31T00:41:00.324Z,109.07
2019-03-31T00:43:28.746Z,114.00
2019-03-31T00:45:57.238Z,110.47
2019-03-31T00:48:25.701Z,112.93
2019-03-31T00:50:54.107Z,115.77
2019-03-31T00:53:22.570Z,120.30
2019-03-31T00:55:50.988Z,116.43
2019-03-31T00:58:19.503Z,117.47
2019-03-31T01:00:49.629Z,112.27
2019-03-31T01:03:20.118Z,109.13
2019-03-31T01:05:48.599Z,113.10
2019-03-31T01:08:17.491Z,114.67
2019-03-31T01:10:45.914Z,114.00
2019-03-31T01:13:14.431Z,115.77
2019-03-31T01:15:43.220Z,114.60
2019-03-31T01:18:12.098Z,111.80
2019-03-31T01:20:40.858Z,126.00
2019-03-31T01:23:09.476Z,125.33
2019-03-31T01:25:37.966Z,126.80
2019-03-31T01:28:06.408Z,116.57
2019-03-31T01:30:34.834Z,120.17
2019-03-31T01:33:03.629Z,111.87
2019-03-31T01:35:32.121Z,116.93
2019-03-31T01:38:00.709Z,117.03
2019-03-31T01:40:29.173Z,101.73
2019-03-31T01:42:57.731Z,115.77
2019-03-31T01:45:26.624Z,102.93
2019-03-31T01:47:55.206Z,99.67
2019-03-31T01:50:25.403Z,78.80
2019-03-31T01:52:53.855Z,107.00
2019-03-31T01:55:22.341Z,112.43
2019-03-31T01:57:50.796Z,115.13
2019-03-31T02:00:26.655Z,123.43
2019-03-31T02:02:55.182Z,113.10
2019-03-31T02:05:23.607Z,110.93
2019-03-31T02:07:52.052Z,115.50
2019-03-31T02:10:20.466Z,88.53
2019-03-31T02:12:48.923Z,74.87
2019-03-31T02:15:17.411Z,82.20
2019-03-31T02:17:45.827Z,89.90
2019-03-31T02:20:14.276Z,89.27
2019-03-31T02:22:42.704Z,78.07
2019-03-31T02:25:11.150Z,88.03
2019-03-31T02:27:39.570Z,83.00
2019-03-31T02:30:08.191Z,76.47
2019-03-31T02:32:36.605Z,78.93
2019-03-31T02:35:05.825Z,66.60
2019-03-31T02:37:34.232Z,78.03
2019-03-31T02:40:02.745Z,71.07
2019-03-31T02:42:31.161Z,79.43
2019-03-31T02:44:59.604Z,73.00
2019-03-31T02:47:28.013Z,72.30
2019-03-31T02:49:56.461Z,65.63
2019-03-31T02:52:24.944Z,62.83
2019-03-31T02:54:53.389Z,69.13
2019-03-31T02:57:22.475Z,73.30
2019-03-31T02:59:51.393Z,71.80
2019-03-31T03:02:21.081Z,59.70
2019-03-31T03:04:50.094Z,69.60
2019-03-31T03:07:19.075Z,69.03
2019-03-31T03:09:49.421Z,63.03
2019-03-31T03:12:19.280Z,68.77
2019-03-31T03:14:49.831Z,67.80
2019-03-31T03:17:18.314Z,71.30
2019-03-31T03:19:46.753Z,64.97
2019-03-31T03:22:15.175Z,70.00
2019-03-31T03:24:43.621Z,66.70
2019-03-31T03:27:12.038Z,64.10
2019-03-31T03:29:40.471Z,71.20
2019-03-31T03:32:08.904Z,64.33
2019-03-31T03:34:37.353Z,67.27
2019-03-31T03:37:05.849Z,74.67
2019-03-31T03:39:34.272Z,69.70
2019-03-31T03:42:02.870Z,75.90
2019-03-31T03:44:31.301Z,64.80
2019-03-31T03:46:59.746Z,64.87
2019-03-31T03:49:28.164Z,65.50
2019-03-31T03:51:56.609Z,68.50
2019-03-31T03:54:25.042Z,66.87
2019-03-31T03:56:53.482Z,62.23
2019-03-31T03:59:21.901Z,67.30
2019-03-31T04:01:50.350Z,60.47
2019-03-31T04:04:18.757Z,69.03
2019-03-31T04:06:47.205Z,71.07
2019-03-31T04:09:15.717Z,66.17
2019-03-31T04:11:44.152Z,68.83
2019-03-31T04:14:12.572Z,63.10
2019-03-31T04:16:41.038Z,69.90
2019-03-31T04:19:09.457Z,77.27
2019-03-31T04:21:37.896Z,74.37
2019-03-31T04:24:06.320Z,68.13
2019-03-31T04:26:34.763Z,65.47
2019-03-31T04:29:03.186Z,68.63
2019-03-31T04:31:31.630Z,68.80
2019-03-31T04:34:00.051Z,70.10
2019-03-31T04:36:28.492Z,68.10
2019-03-31T04:39:00.069Z,68.53
2019-03-31T04:41:27.075Z,73.93
2019-03-31T04:43:55.499Z,69.97
2019-03-31T04:46:23.934Z,74.37
2019-03-31T04:48:52.358Z,71.87
2019-03-31T04:51:20.771Z,72.10
2019-03-31T04:53:49.291Z,72.23
2019-03-31T04:56:17.702Z,71.47
2019-03-31T04:58:46.142Z,66.00
2019-03-31T05:01:14.630Z,69.07
2019-03-31T05:03:43.075Z,69.00
2019-03-31T05:06:11.502Z,71.43
2019-03-31T05:08:39.946Z,65.43
2019-03-31T05:11:08.368Z,72.40
2019-03-31T05:13:36.817Z,74.50
2019-03-31T05:16:05.303Z,77.60
2019-03-31T05:18:33.749Z,73.30
2019-03-31T05:21:02.238Z,70.60
2019-03-31T05:23:30.685Z,70.87
2019-03-31T05:25:59.097Z,73.30
2019-03-31T05:28:27.538Z,77.87
2019-03-31T05:30:55.953Z,76.60
2019-03-31T05:33:24.398Z,74.70
2019-03-31T05:35:52.825Z,75.03
2019-03-31T05:38:21.266Z,73.20
2019-03-31T05:40:49.720Z,70.53
2019-03-31T05:43:18.131Z,60.03
2019-03-31T05:45:46.540Z,67.30
2019-03-31T05:48:15.028Z,68.40
2019-03-31T05:50:43.472Z,79.00
2019-03-31T05:53:11.880Z,68.40
2019-03-31T05:55:40.326Z,73.23
2019-03-31T05:58:08.742Z,58.27
2019-03-31T06:00:42.431Z,57.07
2019-03-31T06:03:10.865Z,61.87
2019-03-31T06:05:39.305Z,62.93
2019-03-31T06:08:07.790Z,56.03
2019-03-31T06:10:36.275Z,60.23
2019-03-31T06:13:05.162Z,55.67
2019-03-31T06:15:33.601Z,44.77
2019-03-31T06:18:02.011Z,52.00
2019-03-31T06:20:30.517Z,52.30
2019-03-31T06:22:58.928Z,47.10
2019-03-31T06:25:27.369Z,48.20
2019-03-31T06:27:55.951Z,51.10
2019-03-31T06:30:24.530Z,48.07
2019-03-31T06:32:55.473Z,46.63
2019-03-31T06:35:23.099Z,42.97
2019-03-31T06:37:51.512Z,45.90
2019-03-31T06:40:20.026Z,46.40
2019-03-31T06:42:48.443Z,43.73
2019-03-31T06:45:16.890Z,39.80
2019-03-31T06:47:45.334Z,38.40
2019-03-31T06:50:13.821Z,37.00
2019-03-31T06:52:42.251Z,35.50
2019-03-31T06:55:10.653Z,36.37
2019-03-31T06:57:39.092Z,39.37
2019-03-31T07:00:07.731Z,39.97
2019-03-31T07:02:36.165Z,36.77
2019-03-31T07:05:07.030Z,40.33
2019-03-31T07:07:35.456Z,49.47
2019-03-31T07:10:06.013Z,34.67
2019-03-31T07:12:34.452Z,37.43
2019-03-31T07:15:03.138Z,38.63
2019-03-31T07:17:31.580Z,40.03
2019-03-31T07:19:59.998Z,38.40
2019-03-31T07:22:28.437Z,41.00
2019-03-31T07:24:56.844Z,35.07
2019-03-31T07:27:25.287Z,38.10
2019-03-31T07:29:53.709Z,38.27
2019-03-31T07:32:22.144Z,36.00
2019-03-31T07:34:50.557Z,40.50
2019-03-31T07:37:19.002Z,38.57
2019-03-31T07:39:47.604Z,35.13
2019-03-31T07:42:16.077Z,35.57
2019-03-31T07:44:44.482Z,37.30
2019-03-31T07:47:12.923Z,37.47
2019-03-31T07:49:41.398Z,39.87
2019-03-31T07:52:09.837Z,45.00
2019-03-31T07:54:38.246Z,38.00
2019-03-31T07:57:07.237Z,37.50
2019-03-31T07:59:35.797Z,37.30
2019-03-31T08:02:04.229Z,40.47
2019-03-31T08:04:32.639Z,38.80
2019-03-31T08:07:01.076Z,37.50
2019-03-31T08:09:29.498Z,44.97
2019-03-31T08:11:57.904Z,37.37
2019-03-31T08:14:26.350Z,36.27
2019-03-31T08:16:54.759Z,38.30
2019-03-31T08:19:23.205Z,37.77
2019-03-31T08:21:51.619Z,40.57
2019-03-31T08:24:20.067Z,40.20
2019-03-31T08:26:48.482Z,38.17
2019-03-31T08:29:16.921Z,40.53
2019-03-31T08:31:45.322Z,37.30
2019-03-31T08:34:13.767Z,42.70
2019-03-31T08:36:42.174Z,37.47
2019-03-31T08:39:10.630Z,37.27
2019-03-31T08:41:39.048Z,37.60
2019-03-31T08:44:07.496Z,38.00
2019-03-31T08:46:35.898Z,35.67
2019-03-31T08:49:04.406Z,40.17
2019-03-31T08:51:32.808Z,38.53
2019-03-31T08:54:01.239Z,40.20
2019-03-31T08:56:29.650Z,37.83
2019-03-31T08:58:58.146Z,39.77
2019-03-31T09:01:26.566Z,37.00
2019-03-31T09:03:54.997Z,37.07
2019-03-31T09:06:23.402Z,42.70
2019-03-31T09:08:51.837Z,38.03
2019-03-31T09:11:20.247Z,43.00
2019-03-31T09:13:48.673Z,47.40
2019-03-31T09:16:17.087Z,37.67
2019-03-31T09:18:45.539Z,42.27
2019-03-31T09:21:13.950Z,40.70
2019-03-31T09:23:42.360Z,38.27
2019-03-31T09:26:10.803Z,39.67
2019-03-31T09:28:39.208Z,38.20
2019-03-31T09:31:07.640Z,37.90
2019-03-31T09:33:39.302Z,39.40
2019-03-31T09:36:15.918Z,38.43
2019-03-31T09:38:36.413Z,37.20
2019-03-31T09:41:04.912Z,37.10
2019-03-31T09:43:33.383Z,36.20
2019-03-31T09:46:01.882Z,43.20
2019-03-31T09:48:30.291Z,37.73
2019-03-31T09:50:58.722Z,38.67
2019-03-31T09:53:28.001Z,38.37
2019-03-31T09:55:56.438Z,37.33
2019-03-31T09:58:24.845Z,44.97
2019-03-31T10:00:53.426Z,37.27
2019-03-31T10:03:22.072Z,36.27
2019-03-31T10:05:50.663Z,36.70
2019-03-31T10:08:21.943Z,35.30
2019-03-31T10:10:49.366Z,35.97
2019-03-31T10:13:17.772Z,40.63
2019-03-31T10:15:46.221Z,39.30
2019-03-31T10:18:17.946Z,38.57
2019-03-31T10:20:44.804Z,37.50
2019-03-31T10:23:13.286Z,41.57
2019-03-31T10:25:41.723Z,37.47
2019-03-31T10:28:10.130Z,36.07
2019-03-31T10:30:40.283Z,35.90
2019-03-31T10:33:09.155Z,36.93
2019-03-31T10:35:37.658Z,37.43
2019-03-31T10:38:06.307Z,38.13
2019-03-31T10:40:34.751Z,39.37
2019-03-31T10:43:03.166Z,38.63
2019-03-31T10:45:31.598Z,40.83
2019-03-31T10:48:00.005Z,38.60
2019-03-31T10:50:28.485Z,38.67
2019-03-31T10:52:56.916Z,40.87
2019-03-31T10:55:25.330Z,41.00
2019-03-31T10:57:53.770Z,36.53
2019-03-31T11:00:31.111Z,38.80
2019-03-31T11:02:59.632Z,38.90
2019-03-31T11:05:28.113Z,40.13
2019-03-31T11:07:56.556Z,39.33
2019-03-31T11:10:24.968Z,41.07
2019-03-31T11:12:53.412Z,37.97
2019-03-31T11:15:21.823Z,38.83
2019-03-31T11:17:50.339Z,36.53
2019-03-31T11:20:18.746Z,37.33
2019-03-31T11:22:48.838Z,36.87
2019-03-31T11:25:21.169Z,38.10
2019-03-31T11:27:47.501Z,41.43
2019-03-31T11:30:16.975Z,39.57
2019-03-31T11:32:45.420Z,38.97
2019-03-31T11:35:13.842Z,40.30
2019-03-31T11:37:42.276Z,39.50
2019-03-31T11:40:10.767Z,38.03
2019-03-31T11:42:39.203Z,38.37
2019-03-31T11:45:07.882Z,41.13
2019-03-31T11:47:36.325Z,36.50
2019-03-31T11:50:06.772Z,40.30
2019-03-31T11:52:35.213Z,39.20
2019-03-31T11:55:04.300Z,38.90
2019-03-31T11:57:32.742Z,38.27
2019-03-31T12:00:01.309Z,42.60
2019-03-31T12:02:29.724Z,37.70
2019-03-31T12:04:58.163Z,36.27
2019-03-31T12:07:28.169Z,39.50
2019-03-31T12:09:56.733Z,38.97
2019-03-31T12:12:25.146Z,38.90
2019-03-31T12:15:00.280Z,37.90
2019-03-31T12:17:23.725Z,37.57
2019-03-31T12:19:52.170Z,42.30
2019-03-31T12:22:20.584Z,37.77
2019-03-31T12:24:49.032Z,39.20
2019-03-31T12:27:17.451Z,38.40
2019-03-31T12:29:45.893Z,39.63
2019-03-31T12:32:14.302Z,40.93
2019-03-31T12:34:42.756Z,40.07
2019-03-31T12:37:11.165Z,46.93
2019-03-31T12:39:39.624Z,36.43
2019-03-31T12:42:08.039Z,39.33
2019-03-31T12:44:36.477Z,37.43
2019-03-31T12:47:04.890Z,37.77
2019-03-31T12:49:33.344Z,36.70
2019-03-31T12:52:01.828Z,40.20
2019-03-31T12:54:30.277Z,38.23
2019-03-31T12:56:58.689Z,38.10
2019-03-31T12:59:27.700Z,37.90
2019-03-31T13:01:56.129Z,45.70
2019-03-31T13:04:24.540Z,37.57
2019-03-31T13:06:52.982Z,40.53
2019-03-31T13:09:21.392Z,42.60
2019-03-31T13:11:50.479Z,37.90
2019-03-31T13:14:19.136Z,37.50
2019-03-31T13:16:47.569Z,37.67
2019-03-31T13:19:15.996Z,41.20
2019-03-31T13:21:44.440Z,37.40
2019-03-31T13:24:12.851Z,38.57
2019-03-31T13:26:41.293Z,37.47
2019-03-31T13:29:09.712Z,38.33
2019-03-31T13:31:38.164Z,37.50
2019-03-31T13:34:06.646Z,42.07
2019-03-31T13:36:35.085Z,38.20
2019-03-31T13:39:05.140Z,42.17
2019-03-31T13:41:33.583Z,38.90
2019-03-31T13:44:01.997Z,38.57
2019-03-31T13:46:30.442Z,47.93
2019-03-31T13:48:58.854Z,36.30
2019-03-31T13:51:27.302Z,38.80
2019-03-31T13:53:55.720Z,38.23
2019-03-31T13:56:24.157Z,38.70
2019-03-31T13:58:52.854Z,37.07
2019-03-31T14:01:21.521Z,38.57
2019-03-31T14:03:49.909Z,42.17
2019-03-31T14:06:18.351Z,38.90
2019-03-31T14:08:46.773Z,38.30
2019-03-31T14:11:15.234Z,38.60
2019-03-31T14:13:43.638Z,38.97
2019-03-31T14:16:12.080Z,39.17
2019-03-31T14:18:40.489Z,38.27
2019-03-31T14:21:08.932Z,39.57
2019-03-31T14:23:37.341Z,37.47
2019-03-31T14:26:05.815Z,38.30
2019-03-31T14:28:34.246Z,38.97
2019-03-31T14:31:02.688Z,37.97
2019-03-31T14:33:31.096Z,40.90
2019-03-31T14:35:59.515Z,41.73
2019-03-31T14:38:39.392Z,38.03
2019-03-31T14:40:58.094Z,37.60
2019-03-31T14:43:28.171Z,37.33
2019-03-31T14:45:56.743Z,37.40
2019-03-31T14:48:25.247Z,38.83
2019-03-31T14:50:53.667Z,38.33
2019-03-31T14:53:22.104Z,38.27
2019-03-31T14:55:50.520Z,40.03
2019-03-31T14:58:18.954Z,39.07
2019-03-31T15:00:47.382Z,36.80
2019-03-31T15:03:18.077Z,35.80
2019-03-31T15:05:45.941Z,40.80
2019-03-31T15:08:14.374Z,37.23
2019-03-31T15:10:42.786Z,36.10
2019-03-31T15:13:11.232Z,39.33
2019-03-31T15:15:39.642Z,38.83
2019-03-31T15:18:08.080Z,37.23
2019-03-31T15:20:36.496Z,39.20
2019-03-31T15:23:05.001Z,36.50
2019-03-31T15:25:33.476Z,36.67
2019-03-31T15:28:02.003Z,38.57
2019-03-31T15:30:30.461Z,40.63
2019-03-31T15:32:58.904Z,39.50
2019-03-31T15:35:27.316Z,38.80
2019-03-31T15:37:55.753Z,37.10
2019-03-31T15:40:24.162Z,40.00
2019-03-31T15:42:52.595Z,47.00
2019-03-31T15:45:21.006Z,39.57
2019-03-31T15:47:49.447Z,38.67
2019-03-31T15:50:17.946Z,41.93
2019-03-31T15:52:46.382Z,37.17
2019-03-31T15:55:14.848Z,39.60
2019-03-31T15:57:43.277Z,38.90
2019-03-31T16:00:13.026Z,39.10
2019-03-31T16:02:41.503Z,37.23
2019-03-31T16:05:12.659Z,39.20
2019-03-31T16:07:40.678Z,39.10
2019-03-31T16:10:09.749Z,39.47
2019-03-31T16:12:38.528Z,38.97
2019-03-31T16:15:07.923Z,39.53
2019-03-31T16:17:36.673Z,40.27
2019-03-31T16:20:06.873Z,36.80
2019-03-31T16:22:35.929Z,42.53
2019-03-31T16:25:07.971Z,37.77
2019-03-31T16:27:36.454Z,38.57
2019-03-31T16:30:06.613Z,38.83
2019-03-31T16:32:35.056Z,40.87
2019-03-31T16:35:04.031Z,37.47
2019-03-31T16:37:32.439Z,38.03
2019-03-31T16:40:00.877Z,38.80
2019-03-31T16:42:29.288Z,39.10
2019-03-31T16:44:58.656Z,42.20
2019-03-31T16:47:27.221Z,40.03
2019-03-31T16:49:55.658Z,38.43
2019-03-31T16:52:24.061Z,38.30
2019-03-31T16:54:52.496Z,37.50
2019-03-31T16:57:20.909Z,38.37
2019-03-31T16:59:49.318Z,37.07
2019-03-31T17:02:17.757Z,40.10
2019-03-31T17:04:46.166Z,39.17
2019-03-31T17:07:14.597Z,36.50
2019-03-31T17:09:51.277Z,36.97
2019-03-31T17:12:13.185Z,39.50
2019-03-31T17:14:41.597Z,39.00
2019-03-31T17:17:10.036Z,38.57
2019-03-31T17:19:38.513Z,38.30
2019-03-31T17:22:06.954Z,38.30
2019-03-31T17:24:35.369Z,38.50
2019-03-31T17:27:03.871Z,37.90
2019-03-31T17:29:32.346Z,37.63
2019-03-31T17:32:00.845Z,39.80
2019-03-31T17:34:29.260Z,40.37
2019-03-31T17:36:57.695Z,43.80
2019-03-31T17:39:26.650Z,37.70
2019-03-31T17:41:55.220Z,38.90
2019-03-31T17:44:23.633Z,39.60
2019-03-31T17:46:52.064Z,38.20
2019-03-31T17:49:20.476Z,39.37
2019-03-31T17:51:48.915Z,38.60
2019-03-31T17:54:17.460Z,39.70
2019-03-31T17:56:45.904Z,39.50
2019-03-31T17:59:14.317Z,37.97
2019-03-31T18:01:42.756Z,38.30
2019-03-31T18:04:11.179Z,38.83
2019-03-31T18:06:39.618Z,37.67
2019-03-31T18:09:09.198Z,40.43
2019-03-31T18:11:37.637Z,46.40
2019-03-31T18:14:06.938Z,41.90
2019-03-31T18:16:35.531Z,39.60
2019-03-31T18:19:03.947Z,39.27
2019-03-31T18:21:32.375Z,37.27
2019-03-31T18:24:00.790Z,40.97
2019-03-31T18:26:29.299Z,38.87
2019-03-31T18:28:57.709Z,38.60
2019-03-31T18:31:26.135Z,38.27
2019-03-31T18:33:54.561Z,40.07
2019-03-31T18:36:35.898Z,37.87
2019-03-31T18:38:53.134Z,39.37
2019-03-31T18:41:21.541Z,39.67
2019-03-31T18:43:51.792Z,40.73
2019-03-31T18:46:20.178Z,39.43
2019-03-31T18:48:48.618Z,42.17
2019-03-31T18:51:17.096Z,39.00
2019-03-31T18:53:50.004Z,44.37
2019-03-31T18:56:36.042Z,38.47
2019-03-31T18:59:08.543Z,41.93
2019-03-31T19:01:41.567Z,40.20
2019-03-31T19:04:14.384Z,39.60
2019-03-31T19:06:47.543Z,39.40
2019-03-31T19:09:17.622Z,39.97
2019-03-31T19:12:03.584Z,38.40
2019-03-31T19:14:39.871Z,42.30
2019-03-31T19:17:09.921Z,39.40
2019-03-31T19:19:48.836Z,38.10
2019-03-31T19:22:30.922Z,37.20
2019-03-31T19:25:04.016Z,38.47
2019-03-31T19:27:37.106Z,41.77
2019-03-31T19:30:26.168Z,42.03
2019-03-31T19:32:56.219Z,39.70
2019-03-31T19:35:38.036Z,41.83
2019-03-31T19:38:13.850Z,38.27
2019-03-31T19:41:04.503Z,42.13
2019-03-31T19:43:30.468Z,40.20
2019-03-31T19:46:00.547Z,43.97
2019-03-31T19:48:33.516Z,39.67
2019-03-31T19:51:19.828Z,39.47
2019-03-31T19:53:52.332Z,39.60
2019-03-31T19:56:25.072Z,41.77
2019-03-31T19:58:58.043Z,51.10
2019-03-31T20:01:28.123Z,48.20
2019-03-31T20:04:00.898Z,40.20
2019-03-31T20:06:36.769Z,44.07
2019-03-31T20:09:25.650Z,41.30
2019-03-31T20:11:55.728Z,43.10
2019-03-31T20:14:25.786Z,45.17
2019-03-31T20:17:01.343Z,43.60
2019-03-31T20:19:31.395Z,42.43
2019-03-31T20:22:01.481Z,42.97
2019-03-31T20:24:31.532Z,46.10
2019-03-31T20:27:04.288Z,39.90
2019-03-31T20:29:36.942Z,43.47
2019-03-31T20:32:09.546Z,39.27
2019-03-31T20:34:42.333Z,46.60
2019-03-31T20:37:15.378Z,39.87
2019-03-31T20:39:56.810Z,40.33
2019-03-31T20:42:28.861Z,40.70
2019-03-31T20:44:57.271Z,39.60
2019-03-31T20:47:25.716Z,41.27
2019-03-31T20:49:54.143Z,37.73
2019-03-31T20:52:22.588Z,38.57
2019-03-31T20:54:51.006Z,40.83
2019-03-31T20:57:19.440Z,37.70
2019-03-31T20:59:47.985Z,39.50
2019-03-31T21:02:16.740Z,40.13
2019-03-31T21:04:45.156Z,40.17
2019-03-31T21:07:13.596Z,37.77
2019-03-31T21:09:45.175Z,42.57
2019-03-31T21:12:12.177Z,37.37
2019-03-31T21:14:40.590Z,40.87
2019-03-31T21:17:09.033Z,42.50
2019-03-31T21:19:37.451Z,38.17
2019-03-31T21:22:05.864Z,37.53
2019-03-31T21:24:34.313Z,36.23
2019-03-31T21:27:02.765Z,39.73
2019-03-31T21:29:31.247Z,37.20
2019-03-31T21:31:59.667Z,38.37
2019-03-31T21:34:28.182Z,38.67
2019-03-31T21:36:56.609Z,39.70
2019-03-31T21:39:25.054Z,39.37
2019-03-31T21:41:53.468Z,38.17
2019-03-31T21:44:21.914Z,38.97
2019-03-31T21:46:50.339Z,37.03
2019-03-31T21:49:18.776Z,38.60
2019-03-31T21:51:47.191Z,41.27
2019-03-31T21:54:15.633Z,39.97
2019-03-31T21:56:44.056Z,38.40
2019-03-31T21:59:12.502Z,37.97
2019-03-31T22:01:40.993Z,42.77
2019-03-31T22:04:09.443Z,41.27
2019-03-31T22:06:37.855Z,40.97
2019-03-31T22:09:08.877Z,38.63
2019-03-31T22:11:37.293Z,40.50
2019-03-31T22:14:05.733Z,37.70
2019-03-31T22:16:34.157Z,38.30
2019-03-31T22:19:02.595Z,38.23
2019-03-31T22:21:31.012Z,41.97
2019-03-31T22:23:59.457Z,37.27
2019-03-31T22:26:27.874Z,38.17
2019-03-31T22:28:56.444Z,39.53
2019-03-31T22:31:24.928Z,38.60
2019-03-31T22:33:53.349Z,40.30
2019-03-31T22:36:21.834Z,37.87
2019-03-31T22:38:51.729Z,38.27
2019-03-31T22:41:20.248Z,36.73
2019-03-31T22:43:51.652Z,38.20
2019-03-31T22:46:20.165Z,38.57
2019-03-31T22:48:48.595Z,38.10
2019-03-31T22:51:17.118Z,36.60
2019-03-31T22:53:45.539Z,39.57
2019-03-31T22:56:13.987Z,41.27
2019-03-31T22:58:42.476Z,40.17
2019-03-31T23:01:10.999Z,39.70
2019-03-31T23:03:39.413Z,40.10
2019-03-31T23:06:07.859Z,38.27
2019-03-31T23:08:36.281Z,39.63
2019-03-31T23:11:04.879Z,39.90
2019-03-31T23:13:33.291Z,39.07
2019-03-31T23:16:01.801Z,41.90
2019-03-31T23:18:30.217Z,38.40
2019-03-31T23:20:58.655Z,38.27
2019-03-31T23:23:27.068Z,42.80
2019-03-31T23:25:55.514Z,42.57
2019-03-31T23:28:23.938Z,37.90
2019-03-31T23:30:52.359Z,38.73
2019-03-31T23:33:20.806Z,36.77
2019-03-31T23:35:49.225Z,39.00
2019-03-31T23:38:17.675Z,37.47
2019-03-31T23:40:46.098Z,36.63
2019-03-31T23:43:14.543Z,40.80
2019-03-31T23:45:42.976Z,40.50
2019-03-31T23:48:11.416Z,38.97
2019-03-31T23:50:39.829Z,40.67
2019-03-31T23:53:08.274Z,38.47
2019-03-31T23:55:36.690Z,43.37
2019-03-31T23:58:05.138Z,37.57
